createdAt,value
2022-12-09T00:01:21.046Z,18.10
2022-12-09T00:03:49.048Z,18.53
2022-12-09T00:06:25.618Z,19.57
2022-12-09T00:08:53.699Z,20.57
2022-12-09T00:11:21.991Z,20.27
2022-12-09T00:13:54.376Z,22.27
2022-12-09T00:16:23.092Z,21.13
2022-12-09T00:18:51.538Z,22.30
2022-12-09T00:21:32.373Z,22.37
2022-12-09T00:24:03.953Z,23.00
2022-12-09T00:26:31.598Z,22.10
2022-12-09T00:29:00.047Z,21.50
2022-12-09T00:31:32.587Z,21.90
2022-12-09T00:34:06.249Z,20.53
2022-12-09T00:36:33.554Z,19.93
2022-12-09T00:39:02.165Z,21.20
2022-12-09T00:41:30.331Z,20.20
2022-12-09T00:43:58.345Z,19.73
2022-12-09T00:46:25.507Z,19.77
2022-12-09T00:48:52.658Z,21.20
2022-12-09T00:51:22.691Z,19.80
2022-12-09T00:53:54.911Z,19.30
2022-12-09T00:56:24.892Z,20.97
2022-12-09T00:58:52.343Z,19.93
2022-12-09T01:01:19.338Z,20.33
2022-12-09T01:03:46.609Z,20.93
2022-12-09T01:06:20.280Z,22.13
2022-12-09T01:08:47.764Z,21.43
2022-12-09T01:11:33.304Z,20.67
2022-12-09T01:14:02.444Z,21.97
2022-12-09T01:16:35.039Z,20.93
2022-12-09T01:19:07.409Z,21.40
2022-12-09T01:21:36.399Z,20.57
2022-12-09T01:24:10.966Z,20.00
2022-12-09T01:26:39.275Z,20.00
2022-12-09T01:29:06.389Z,18.07
2022-12-09T01:31:33.688Z,19.03
2022-12-09T01:34:01.050Z,18.53
2022-12-09T01:36:29.949Z,19.17
2022-12-09T01:38:59.529Z,18.80
2022-12-09T01:41:27.484Z,18.13
2022-12-09T01:44:18.779Z,19.27
2022-12-09T01:46:47.569Z,18.47
2022-12-09T01:49:26.056Z,18.13
2022-12-09T01:52:10.976Z,17.60
2022-12-09T01:54:40.341Z,17.27
2022-12-09T01:57:08.416Z,17.10
2022-12-09T01:59:36.547Z,16.80
2022-12-09T02:02:05.076Z,18.50
2022-12-09T02:04:39.845Z,18.53
2022-12-09T02:07:10.671Z,19.00
2022-12-09T02:09:40.112Z,17.70
2022-12-09T02:12:43.815Z,17.90
2022-12-09T02:15:21.523Z,17.77
2022-12-09T02:18:04.643Z,17.20
2022-12-09T02:20:48.419Z,17.27
2022-12-09T02:23:51.714Z,17.73
2022-12-09T02:26:51.877Z,17.70
2022-12-09T02:29:49.554Z,17.50
2022-12-09T02:32:16.487Z,17.83
2022-12-09T02:35:00.894Z,16.77
2022-12-09T02:37:42.446Z,17.73
2022-12-09T02:40:25.188Z,17.47
2022-12-09T02:42:53.445Z,18.03
2022-12-09T02:45:23.065Z,18.70
2022-12-09T02:47:53.372Z,17.53
2022-12-09T02:50:27.829Z,20.00
2022-12-09T02:52:56.991Z,18.40
2022-12-09T02:55:24.334Z,19.13
2022-12-09T02:57:57.726Z,18.23
2022-12-09T03:00:25.037Z,17.67
2022-12-09T03:03:05.596Z,18.03
2022-12-09T03:06:01.013Z,17.03
2022-12-09T03:09:01.749Z,19.13
2022-12-09T03:11:32.244Z,18.17
2022-12-09T03:14:13.172Z,18.13
2022-12-09T03:16:52.342Z,18.10
2022-12-09T03:19:29.070Z,20.00
2022-12-09T03:22:04.152Z,18.47
2022-12-09T03:24:54.336Z,19.23
2022-12-09T03:27:29.177Z,18.60
2022-12-09T03:29:58.641Z,19.67
2022-12-09T03:32:28.471Z,18.07
2022-12-09T03:35:05.407Z,18.90
2022-12-09T03:37:33.694Z,19.20
2022-12-09T03:40:01.450Z,17.57
2022-12-09T03:42:38.399Z,19.33
2022-12-09T03:45:11.649Z,18.03
2022-12-09T03:47:39.038Z,17.97
2022-12-09T03:50:08.006Z,19.37
2022-12-09T03:52:45.915Z,18.93
2022-12-09T03:55:44.013Z,17.70
2022-12-09T03:58:13.751Z,18.03
2022-12-09T04:00:41.053Z,19.97
2022-12-09T04:03:09.037Z,19.13
2022-12-09T04:05:36.397Z,19.50
2022-12-09T04:08:03.537Z,18.67
2022-12-09T04:10:30.574Z,18.23
2022-12-09T04:12:57.793Z,18.97
2022-12-09T04:15:25.191Z,18.23
2022-12-09T04:17:52.277Z,19.73
2022-12-09T04:20:19.507Z,19.73
2022-12-09T04:22:46.461Z,19.23
2022-12-09T04:25:13.798Z,19.40
2022-12-09T04:27:41.037Z,19.83
2022-12-09T04:30:09.388Z,19.37
2022-12-09T04:32:37.150Z,19.73
2022-12-09T04:35:04.698Z,18.40
2022-12-09T04:37:32.727Z,19.87
2022-12-09T04:39:59.755Z,19.80
2022-12-09T04:42:29.807Z,19.47
2022-12-09T04:44:56.795Z,18.53
2022-12-09T04:47:24.410Z,19.73
2022-12-09T04:49:51.757Z,20.17
2022-12-09T04:52:19.355Z,20.07
2022-12-09T04:54:46.331Z,20.03
2022-12-09T04:57:13.731Z,19.93
2022-12-09T04:59:40.778Z,18.40
2022-12-09T05:02:07.909Z,19.13
2022-12-09T05:04:35.314Z,20.43
2022-12-09T05:07:02.603Z,18.87
2022-12-09T05:09:30.356Z,19.80
2022-12-09T05:11:58.295Z,19.60
2022-12-09T05:14:25.848Z,19.30
2022-12-09T05:16:53.105Z,20.17
2022-12-09T05:19:20.434Z,20.37
2022-12-09T05:21:48.106Z,20.57
2022-12-09T05:24:15.499Z,20.53
2022-12-09T05:26:42.881Z,20.03
2022-12-09T05:29:09.987Z,19.37
2022-12-09T05:31:37.140Z,20.03
2022-12-09T05:34:04.659Z,19.57
2022-12-09T05:36:32.351Z,19.70
2022-12-09T05:38:59.820Z,20.23
2022-12-09T05:41:27.319Z,21.07
2022-12-09T05:43:54.820Z,20.10
2022-12-09T05:46:22.620Z,20.23
2022-12-09T05:48:49.963Z,20.37
2022-12-09T05:51:27.346Z,20.43
2022-12-09T05:53:55.982Z,19.93
2022-12-09T05:56:25.400Z,20.00
2022-12-09T05:58:54.158Z,21.20
2022-12-09T06:01:23.635Z,19.93
2022-12-09T06:03:52.402Z,18.30
2022-12-09T06:06:23.015Z,20.60
2022-12-09T06:08:54.894Z,19.33
2022-12-09T06:11:22.927Z,19.70
2022-12-09T06:13:51.441Z,21.33
2022-12-09T06:16:21.954Z,21.27
2022-12-09T06:18:50.404Z,20.80
2022-12-09T06:21:19.984Z,20.97
2022-12-09T06:23:47.640Z,20.27
2022-12-09T06:26:21.511Z,20.37
2022-12-09T06:28:48.835Z,20.20
2022-12-09T06:31:16.746Z,20.40
2022-12-09T06:34:00.291Z,19.80
2022-12-09T06:36:31.187Z,19.80
2022-12-09T06:39:07.922Z,21.57
2022-12-09T06:41:37.394Z,20.83
2022-12-09T06:44:04.781Z,21.53
2022-12-09T06:46:32.053Z,22.10
2022-12-09T06:48:59.427Z,20.13
2022-12-09T06:51:26.966Z,21.80
2022-12-09T06:53:54.696Z,21.30
2022-12-09T06:56:23.443Z,20.33
2022-12-09T06:58:51.326Z,21.73
2022-12-09T07:01:25.433Z,21.33
2022-12-09T07:03:56.659Z,22.63
2022-12-09T07:06:30.122Z,20.93
2022-12-09T07:09:02.052Z,21.90
2022-12-09T07:11:30.156Z,21.17
2022-12-09T07:13:57.573Z,20.70
2022-12-09T07:16:25.704Z,20.27
2022-12-09T07:18:53.594Z,20.83
2022-12-09T07:21:22.776Z,20.13
2022-12-09T07:23:50.541Z,22.30
2022-12-09T07:26:18.755Z,22.53
2022-12-09T07:28:48.143Z,25.63
2022-12-09T07:31:25.710Z,21.97
2022-12-09T07:33:56.399Z,22.00
2022-12-09T07:36:26.632Z,23.60
2022-12-09T07:39:11.465Z,23.37
2022-12-09T07:41:38.720Z,22.43
2022-12-09T07:44:06.250Z,22.37
2022-12-09T07:46:34.098Z,22.00
2022-12-09T07:49:04.590Z,21.97
2022-12-09T07:51:33.398Z,22.53
2022-12-09T07:54:00.998Z,21.27
2022-12-09T07:56:29.295Z,21.00
2022-12-09T07:58:57.414Z,20.90
2022-12-09T08:01:30.197Z,20.87
2022-12-09T08:03:58.324Z,22.57
2022-12-09T08:06:28.640Z,22.03
2022-12-09T08:09:02.150Z,22.93
2022-12-09T08:11:31.898Z,23.20
2022-12-09T08:14:07.267Z,23.37
2022-12-09T08:16:38.422Z,22.63
2022-12-09T08:19:06.087Z,24.27
2022-12-09T08:21:34.416Z,23.37
2022-12-09T08:24:06.040Z,23.90
2022-12-09T08:26:35.205Z,23.83
2022-12-09T08:29:06.661Z,24.73
2022-12-09T08:31:40.373Z,23.40
2022-12-09T08:34:08.982Z,24.03
2022-12-09T08:36:37.148Z,23.67
2022-12-09T08:39:05.405Z,24.03
2022-12-09T08:41:36.529Z,23.20
2022-12-09T08:44:14.680Z,23.43
2022-12-09T08:46:50.139Z,23.53
2022-12-09T08:49:22.113Z,23.37
2022-12-09T08:51:51.709Z,24.73
2022-12-09T08:54:19.876Z,23.00
2022-12-09T08:56:55.142Z,23.73
2022-12-09T08:59:23.783Z,26.03
2022-12-09T09:01:51.636Z,26.20
2022-12-09T09:04:21.845Z,25.27
2022-12-09T09:06:51.629Z,31.77
2022-12-09T09:09:20.622Z,29.53
2022-12-09T09:11:48.880Z,27.47
2022-12-09T09:14:16.522Z,25.50
2022-12-09T09:16:45.698Z,25.13
2022-12-09T09:19:20.999Z,27.07
2022-12-09T09:21:49.145Z,24.73
2022-12-09T09:24:20.719Z,25.93
2022-12-09T09:26:51.116Z,25.50
2022-12-09T09:29:21.292Z,26.03
2022-12-09T09:31:49.825Z,25.20
2022-12-09T09:34:19.145Z,24.50
2022-12-09T09:36:47.007Z,24.67
2022-12-09T09:39:14.590Z,25.33
2022-12-09T09:42:06.198Z,24.43
2022-12-09T09:44:38.052Z,23.63
2022-12-09T09:48:08.135Z,24.27
2022-12-09T09:50:57.073Z,24.17
2022-12-09T09:53:33.000Z,24.87
2022-12-09T09:56:21.225Z,24.73
2022-12-09T09:59:28.608Z,26.73
2022-12-09T10:02:38.746Z,26.77
2022-12-09T10:05:30.712Z,25.97
2022-12-09T10:08:27.003Z,27.27
2022-12-09T10:11:09.133Z,25.83
2022-12-09T10:14:06.174Z,27.20
2022-12-09T10:17:12.586Z,27.43
2022-12-09T10:19:54.579Z,27.27
2022-12-09T10:22:27.184Z,26.27
2022-12-09T10:24:59.230Z,28.10
2022-12-09T10:27:53.971Z,28.77
2022-12-09T10:30:22.453Z,27.27
2022-12-09T10:32:50.196Z,28.63
2022-12-09T10:35:24.733Z,27.77
2022-12-09T10:37:54.379Z,28.17
2022-12-09T10:40:36.194Z,26.40
2022-12-09T10:43:37.560Z,26.37
2022-12-09T10:46:18.865Z,26.33
2022-12-09T10:48:46.902Z,27.43
2022-12-09T10:51:28.961Z,27.03
2022-12-09T10:54:11.666Z,25.60
2022-12-09T10:57:28.247Z,26.57
2022-12-09T11:00:19.843Z,26.07
2022-12-09T11:02:55.881Z,25.47
2022-12-09T11:05:32.296Z,25.97
2022-12-09T11:08:00.739Z,27.43
2022-12-09T11:10:30.706Z,25.33
2022-12-09T11:13:05.503Z,25.77
2022-12-09T11:15:45.073Z,26.67
2022-12-09T11:18:37.432Z,26.07
2022-12-09T11:21:33.441Z,24.33
2022-12-09T11:24:03.639Z,25.10
2022-12-09T11:26:38.423Z,25.47
2022-12-09T11:29:19.438Z,26.40
2022-12-09T11:31:47.400Z,25.17
2022-12-09T11:34:23.354Z,25.87
2022-12-09T11:36:54.524Z,26.57
2022-12-09T11:39:35.354Z,26.17
2022-12-09T11:42:18.893Z,30.27
2022-12-09T11:45:25.708Z,27.73
2022-12-09T11:50:51.647Z,26.43
2022-12-09T11:53:30.928Z,28.53
2022-12-09T11:56:04.417Z,27.90
2022-12-09T11:58:43.694Z,27.77
2022-12-09T12:01:35.412Z,26.90
2022-12-09T12:04:10.785Z,27.03
2022-12-09T12:06:56.779Z,26.33
2022-12-09T12:09:53.807Z,26.40
2022-12-09T12:12:55.482Z,25.90
2022-12-09T12:15:35.673Z,26.43
2022-12-09T12:18:08.515Z,25.90
2022-12-09T12:21:03.463Z,26.43
2022-12-09T12:23:44.369Z,25.73
2022-12-09T12:26:25.139Z,25.83
2022-12-09T12:28:58.241Z,25.57
2022-12-09T12:31:59.803Z,23.67
2022-12-09T12:35:10.770Z,24.10
2022-12-09T12:38:23.181Z,24.17
2022-12-09T12:41:16.008Z,25.43
2022-12-09T12:44:43.904Z,25.30
2022-12-09T12:47:44.651Z,24.60
2022-12-09T12:50:48.027Z,25.53
2022-12-09T12:53:26.604Z,24.67
2022-12-09T12:56:09.626Z,24.23
2022-12-09T12:59:14.701Z,24.93
2022-12-09T13:02:02.304Z,25.10
2022-12-09T13:04:57.579Z,25.53
2022-12-09T13:07:51.117Z,26.17
2022-12-09T13:10:36.502Z,24.67
2022-12-09T13:13:13.106Z,25.67
2022-12-09T13:15:46.785Z,25.60
2022-12-09T13:18:27.117Z,26.67
2022-12-09T13:21:01.195Z,26.77
2022-12-09T13:24:13.601Z,24.57
2022-12-09T13:27:01.312Z,26.63
2022-12-09T13:30:01.891Z,25.57
2022-12-09T13:33:08.769Z,25.90
2022-12-09T13:36:00.687Z,25.77
2022-12-09T13:38:42.355Z,24.73
2022-12-09T13:41:58.972Z,31.57
2022-12-09T13:44:35.751Z,29.17
2022-12-09T13:47:36.308Z,30.97
2022-12-09T13:50:21.633Z,30.03
2022-12-09T13:52:56.582Z,28.23
2022-12-09T13:55:32.859Z,28.27
2022-12-09T13:59:10.547Z,29.57
2022-12-09T14:02:02.023Z,26.80
2022-12-09T14:04:37.359Z,27.20
2022-12-09T14:07:47.219Z,25.80
2022-12-09T14:11:19.314Z,25.90
2022-12-09T14:13:46.349Z,26.50
2022-12-09T14:16:28.761Z,25.37
2022-12-09T14:18:57.116Z,27.43
2022-12-09T14:21:31.242Z,27.47
2022-12-09T14:24:11.421Z,26.63
2022-12-09T14:27:08.765Z,26.53
2022-12-09T14:30:23.279Z,27.37
2022-12-09T14:32:50.122Z,26.17
2022-12-09T14:35:46.398Z,26.53
2022-12-09T14:39:07.733Z,26.63
2022-12-09T14:42:04.138Z,25.47
2022-12-09T14:44:55.195Z,23.20
2022-12-09T14:47:32.694Z,24.13
2022-12-09T14:50:15.245Z,23.83
2022-12-09T14:52:54.114Z,24.53
2022-12-09T14:55:24.937Z,24.57
2022-12-09T14:57:54.632Z,24.70
2022-12-09T15:00:41.771Z,26.53
2022-12-09T15:03:35.530Z,26.37
2022-12-09T15:06:17.380Z,25.47
2022-12-09T15:08:45.112Z,26.00
2022-12-09T15:11:23.099Z,26.67
2022-12-09T15:13:53.947Z,25.67
2022-12-09T15:16:25.364Z,28.37
2022-12-09T15:18:54.267Z,25.70
2022-12-09T15:21:30.993Z,25.77
2022-12-09T15:24:00.512Z,26.00
2022-12-09T15:26:32.349Z,28.50
2022-12-09T15:29:01.252Z,29.10
2022-12-09T15:31:32.086Z,30.80
2022-12-09T15:34:08.427Z,31.90
2022-12-09T15:36:43.522Z,30.70
2022-12-09T15:39:23.752Z,31.90
2022-12-09T15:42:08.010Z,32.70
2022-12-09T15:45:01.187Z,31.10
2022-12-09T15:47:50.733Z,31.07
2022-12-09T15:50:36.824Z,32.37
2022-12-09T15:53:26.837Z,36.83
2022-12-09T15:56:07.436Z,32.20
2022-12-09T15:58:42.722Z,34.53
2022-12-09T16:01:10.282Z,32.90
2022-12-09T16:03:38.825Z,33.50
2022-12-09T16:06:09.227Z,34.13
2022-12-09T16:08:44.464Z,34.73
2022-12-09T16:11:12.316Z,33.27
2022-12-09T16:13:59.758Z,35.07
2022-12-09T16:16:40.259Z,35.53
2022-12-09T16:19:38.787Z,37.13
2022-12-09T16:22:19.086Z,38.67
2022-12-09T16:25:16.252Z,38.53
2022-12-09T16:27:51.532Z,35.00
2022-12-09T16:30:20.939Z,36.27
2022-12-09T16:32:56.194Z,35.83
2022-12-09T16:35:42.836Z,34.83
2022-12-09T16:38:09.701Z,36.83
2022-12-09T16:40:45.528Z,39.17
2022-12-09T16:43:21.206Z,35.53
2022-12-09T16:45:53.639Z,36.13
2022-12-09T16:48:23.584Z,38.23
2022-12-09T16:51:14.308Z,36.10
2022-12-09T16:53:53.711Z,35.03
2022-12-09T16:56:27.794Z,36.13
2022-12-09T16:58:55.574Z,38.07
2022-12-09T17:01:35.233Z,36.00
2022-12-09T17:04:26.870Z,33.53
2022-12-09T17:06:54.423Z,34.23
2022-12-09T17:09:21.477Z,37.70
2022-12-09T17:11:49.363Z,36.57
2022-12-09T17:14:17.359Z,35.20
2022-12-09T17:16:44.924Z,37.87
2022-12-09T17:19:12.097Z,36.03
2022-12-09T17:21:39.045Z,35.93
2022-12-09T17:24:06.584Z,37.43
2022-12-09T17:26:33.515Z,37.80
2022-12-09T17:29:02.079Z,37.13
2022-12-09T17:31:29.804Z,37.43
2022-12-09T17:33:57.358Z,37.00
2022-12-09T17:36:24.311Z,36.83
2022-12-09T17:38:51.441Z,36.03
2022-12-09T17:41:23.382Z,35.57
2022-12-09T17:43:50.547Z,36.33
2022-12-09T17:46:17.932Z,35.37
2022-12-09T17:48:44.943Z,37.40
2022-12-09T17:51:16.481Z,35.90
2022-12-09T17:53:44.354Z,36.23
2022-12-09T17:56:15.712Z,36.83
2022-12-09T17:58:43.644Z,37.77
2022-12-09T18:01:20.932Z,36.87
2022-12-09T18:03:57.266Z,37.10
2022-12-09T18:06:27.876Z,39.20
2022-12-09T18:08:54.886Z,38.77
2022-12-09T18:11:22.559Z,36.60
2022-12-09T18:13:50.786Z,37.30
2022-12-09T18:16:18.756Z,36.00
2022-12-09T18:18:46.229Z,38.30
2022-12-09T18:21:16.038Z,36.63
2022-12-09T18:23:43.965Z,37.03
2022-12-09T18:26:14.260Z,36.43
2022-12-09T18:28:41.513Z,37.83
2022-12-09T18:31:12.086Z,36.50
2022-12-09T18:33:39.738Z,37.27
2022-12-09T18:36:13.087Z,37.57
2022-12-09T18:38:41.096Z,36.20
2022-12-09T18:41:13.727Z,35.30
2022-12-09T18:43:44.145Z,34.87
2022-12-09T18:46:25.720Z,36.83
2022-12-09T18:49:08.592Z,37.40
2022-12-09T18:51:36.597Z,33.10
2022-12-09T18:54:04.828Z,34.03
2022-12-09T18:56:33.027Z,33.47
2022-12-09T18:59:08.689Z,33.10
2022-12-09T19:01:40.954Z,32.47
2022-12-09T19:04:22.864Z,34.47
2022-12-09T19:06:53.076Z,32.77
2022-12-09T19:09:24.615Z,33.60
2022-12-09T19:11:53.348Z,31.57
2022-12-09T19:14:22.927Z,29.60
2022-12-09T19:16:51.987Z,29.37
2022-12-09T19:19:22.773Z,32.57
2022-12-09T19:21:50.679Z,33.67
2022-12-09T19:24:24.641Z,33.17
2022-12-09T19:26:53.945Z,34.00
2022-12-09T19:29:22.149Z,34.90
2022-12-09T19:31:51.674Z,33.87
2022-12-09T19:34:27.903Z,35.03
2022-12-09T19:36:58.380Z,33.37
2022-12-09T19:39:34.017Z,34.10
2022-12-09T19:42:01.823Z,32.30
2022-12-09T19:44:59.640Z,33.77
2022-12-09T19:47:15.769Z,32.33
2022-12-09T19:49:44.457Z,33.30
2022-12-09T19:52:12.815Z,32.30
2022-12-09T19:54:40.144Z,33.40
2022-12-09T19:57:07.140Z,34.00
2022-12-09T19:59:35.545Z,33.30
2022-12-09T20:02:02.646Z,33.47
2022-12-09T20:07:19.949Z,33.77
2022-12-09T20:09:47.545Z,34.80
2022-12-09T20:12:14.635Z,35.10
2022-12-09T20:14:43.195Z,34.63
2022-12-09T20:17:10.869Z,34.30
2022-12-09T20:19:37.924Z,33.63
2022-12-09T20:22:07.114Z,33.70
2022-12-09T20:24:34.239Z,34.43
2022-12-09T20:27:01.367Z,35.13
2022-12-09T20:29:32.460Z,35.10
2022-12-09T20:32:02.742Z,35.90
2022-12-09T20:34:29.721Z,35.73
2022-12-09T20:36:56.923Z,34.13
2022-12-09T20:39:24.010Z,34.23
2022-12-09T20:41:51.061Z,35.97
2022-12-09T20:44:20.060Z,36.37
2022-12-09T20:46:50.499Z,36.73
2022-12-09T20:49:21.977Z,35.30
2022-12-09T20:51:49.263Z,34.93
2022-12-09T20:54:16.366Z,35.97
2022-12-09T20:56:43.550Z,35.70
2022-12-09T20:59:13.685Z,34.40
2022-12-09T21:01:41.665Z,35.03
2022-12-09T21:04:08.851Z,35.53
2022-12-09T21:06:38.776Z,35.13
2022-12-09T21:09:14.825Z,32.17
2022-12-09T21:11:42.048Z,35.17
2022-12-09T21:14:10.372Z,36.03
2022-12-09T21:16:42.966Z,35.20
2022-12-09T21:19:14.062Z,35.17
2022-12-09T21:21:46.715Z,35.97
2022-12-09T21:24:16.198Z,35.47
2022-12-09T21:26:43.575Z,34.63
2022-12-09T21:29:12.656Z,34.40
2022-12-09T21:31:41.756Z,33.87
2022-12-09T21:34:10.878Z,34.23
2022-12-09T21:36:41.478Z,32.10
2022-12-09T21:39:10.601Z,32.83
2022-12-09T21:41:37.944Z,34.33
2022-12-09T21:44:06.747Z,34.00
2022-12-09T21:46:37.681Z,31.67
2022-12-09T21:49:06.905Z,35.30
2022-12-09T21:51:35.343Z,33.70
2022-12-09T21:54:03.264Z,33.87
2022-12-09T21:56:33.481Z,33.23
2022-12-09T21:59:01.643Z,34.20
2022-12-09T22:01:36.059Z,33.27
2022-12-09T22:04:07.525Z,32.27
2022-12-09T22:06:34.885Z,32.37
2022-12-09T22:09:02.870Z,32.10
2022-12-09T22:11:35.800Z,32.80
2022-12-09T22:14:03.635Z,35.17
2022-12-09T22:16:38.641Z,34.33
2022-12-09T22:19:08.431Z,33.47
2022-12-09T22:21:36.850Z,36.60
2022-12-09T22:24:06.958Z,35.23
2022-12-09T22:26:34.401Z,36.77
2022-12-09T22:29:04.584Z,33.80
2022-12-09T22:31:36.794Z,36.50
2022-12-09T22:34:10.050Z,35.77
2022-12-09T22:36:37.304Z,36.67
2022-12-09T22:39:06.950Z,35.77
2022-12-09T22:41:35.033Z,35.90
2022-12-09T22:44:02.541Z,36.07
2022-12-09T22:46:32.847Z,34.80
2022-12-09T22:49:06.503Z,37.27
2022-12-09T22:51:36.551Z,37.00
2022-12-09T22:54:08.231Z,35.93
2022-12-09T22:56:40.966Z,36.73
2022-12-09T22:59:08.922Z,38.30
2022-12-09T23:01:37.503Z,34.83
2022-12-09T23:04:06.901Z,39.17
2022-12-09T23:06:37.277Z,37.47
2022-12-09T23:09:07.069Z,37.50
2022-12-09T23:11:34.553Z,38.27
2022-12-09T23:14:01.761Z,36.67
2022-12-09T23:16:29.276Z,37.37
2022-12-09T23:18:58.614Z,37.00
2022-12-09T23:21:35.496Z,37.50
2022-12-09T23:24:07.138Z,37.53
2022-12-09T23:26:37.558Z,36.13
2022-12-09T23:29:08.531Z,37.40
2022-12-09T23:31:37.647Z,37.83
2022-12-09T23:34:06.578Z,37.27
2022-12-09T23:36:40.344Z,38.20
2022-12-09T23:39:14.361Z,37.80
2022-12-09T23:41:43.250Z,36.70
2022-12-09T23:44:13.797Z,36.13
2022-12-09T23:46:41.158Z,35.17
2022-12-09T23:49:08.763Z,36.67
2022-12-09T23:51:39.171Z,38.10
2022-12-09T23:54:08.805Z,35.03
2022-12-09T23:56:40.389Z,38.20
2022-12-09T23:59:11.154Z,38.37
